createdAt,value
2022-12-15T00:00:33.359Z,2.05
2022-12-15T00:03:25.650Z,2.10
2022-12-15T00:06:11.631Z,1.90
2022-12-15T00:08:57.460Z,1.88
2022-12-15T00:11:42.923Z,2.30
2022-12-15T00:14:30.281Z,1.73
2022-12-15T00:17:16.568Z,1.85
2022-12-15T00:20:03.400Z,1.75
2022-12-15T00:22:49.331Z,1.40
2022-12-15T00:25:35.253Z,1.80
2022-12-15T00:28:20.923Z,1.90
2022-12-15T00:31:06.602Z,1.80
2022-12-15T00:33:52.247Z,2.10
2022-12-15T00:36:39.198Z,2.47
2022-12-15T00:39:07.708Z,2.60
2022-12-15T00:41:36.087Z,2.55
2022-12-15T00:44:04.635Z,2.00
2022-12-15T00:46:50.524Z,1.77
2022-12-15T00:49:36.169Z,2.00
2022-12-15T00:52:23.360Z,2.40
2022-12-15T00:55:09.378Z,2.20
2022-12-15T00:57:55.342Z,1.90
2022-12-15T01:00:41.492Z,1.92
2022-12-15T01:03:32.451Z,1.70
2022-12-15T01:06:18.994Z,1.52
2022-12-15T01:09:06.216Z,2.17
2022-12-15T01:11:51.585Z,1.45
2022-12-15T01:14:37.644Z,1.80
2022-12-15T01:17:23.581Z,2.50
2022-12-15T01:20:09.123Z,2.50
2022-12-15T01:22:38.037Z,3.08
2022-12-15T01:25:09.964Z,2.35
2022-12-15T01:27:38.443Z,4.10
2022-12-15T01:30:09.004Z,3.15
2022-12-15T01:32:40.383Z,2.90
2022-12-15T01:35:13.426Z,2.53
2022-12-15T01:37:41.823Z,2.30
2022-12-15T01:40:32.920Z,2.13
2022-12-15T01:43:01.464Z,2.80
2022-12-15T01:45:55.645Z,3.03
2022-12-15T01:48:41.474Z,3.10
2022-12-15T01:51:24.900Z,3.03
2022-12-15T01:54:00.241Z,2.47
2022-12-15T01:56:37.297Z,2.78
2022-12-15T01:59:08.731Z,2.80
2022-12-15T02:01:37.200Z,2.30
2022-12-15T02:04:05.887Z,2.10
2022-12-15T02:06:34.139Z,2.17
2022-12-15T02:09:03.178Z,2.40
2022-12-15T02:12:00.346Z,2.65
2022-12-15T02:14:46.723Z,2.13
2022-12-15T02:17:29.517Z,2.13
2022-12-15T02:20:34.249Z,3.47
2022-12-15T02:23:28.042Z,2.00
2022-12-15T02:28:53.931Z,1.73
2022-12-15T02:31:44.336Z,2.33
2022-12-15T02:34:18.858Z,2.08
2022-12-15T02:36:50.678Z,2.17
2022-12-15T02:39:19.924Z,1.85
2022-12-15T02:41:49.041Z,2.20
2022-12-15T02:44:21.107Z,1.77
2022-12-15T02:47:22.409Z,1.30
2022-12-15T02:50:08.147Z,1.60
2022-12-15T02:52:46.727Z,1.95
2022-12-15T02:55:21.075Z,1.40
2022-12-15T02:58:00.928Z,1.58
2022-12-15T03:00:31.653Z,1.83
2022-12-15T03:03:01.554Z,1.38
2022-12-15T03:05:33.010Z,1.27
2022-12-15T03:08:01.832Z,1.30
2022-12-15T03:10:30.818Z,1.58
2022-12-15T03:12:59.996Z,1.30
2022-12-15T03:15:34.935Z,1.50
2022-12-15T03:20:33.396Z,1.60
2022-12-15T03:23:01.958Z,1.30
2022-12-15T03:25:30.663Z,1.50
2022-12-15T03:27:58.957Z,1.70
2022-12-15T03:30:27.582Z,1.65
2022-12-15T03:32:56.026Z,1.85
2022-12-15T03:35:25.768Z,1.90
2022-12-15T03:37:54.189Z,3.38
2022-12-15T03:40:22.658Z,2.83
2022-12-15T03:42:53.767Z,1.90
2022-12-15T03:45:24.346Z,2.20
2022-12-15T03:47:53.318Z,1.90
2022-12-15T03:50:24.067Z,2.03
2022-12-15T03:52:55.458Z,2.10
2022-12-15T03:55:24.428Z,2.03
2022-12-15T03:57:53.302Z,1.63
2022-12-15T04:00:22.756Z,1.73
2022-12-15T04:05:21.166Z,1.30
2022-12-15T04:07:49.806Z,1.42
2022-12-15T04:10:19.672Z,1.52
2022-12-15T04:12:47.980Z,1.67
2022-12-15T04:15:16.376Z,1.60
2022-12-15T04:17:44.760Z,1.65
2022-12-15T04:20:12.356Z,1.90
2022-12-15T04:22:42.019Z,1.60
2022-12-15T04:25:29.945Z,1.88
2022-12-15T04:31:06.480Z,1.50
2022-12-15T04:33:52.756Z,1.60
2022-12-15T04:36:38.728Z,1.42
2022-12-15T04:39:24.635Z,1.60
2022-12-15T04:42:11.182Z,1.55
2022-12-15T04:44:58.346Z,1.75
2022-12-15T04:47:43.797Z,1.25
2022-12-15T04:50:29.217Z,1.42
2022-12-15T04:53:14.917Z,1.90
2022-12-15T04:56:00.478Z,1.77
2022-12-15T04:58:46.333Z,1.80
2022-12-15T05:01:33.405Z,1.55
2022-12-15T05:04:19.339Z,1.85
2022-12-15T05:07:05.510Z,1.75
2022-12-15T05:09:52.297Z,1.70
2022-12-15T05:12:38.377Z,1.88
2022-12-15T05:15:25.204Z,1.50
2022-12-15T05:18:12.293Z,2.78
2022-12-15T05:20:58.601Z,2.10
2022-12-15T05:23:44.481Z,2.03
2022-12-15T05:26:30.002Z,1.58
2022-12-15T05:29:15.419Z,1.75
2022-12-15T05:31:52.235Z,1.77
2022-12-15T05:34:23.983Z,1.90
2022-12-15T05:36:52.493Z,1.98
2022-12-15T05:39:27.834Z,2.22
2022-12-15T05:42:05.092Z,1.75
2022-12-15T05:44:41.170Z,2.00
2022-12-15T05:47:09.617Z,1.92
2022-12-15T05:49:39.301Z,2.75
2022-12-15T05:52:26.849Z,2.38
2022-12-15T05:54:55.251Z,2.90
2022-12-15T05:57:23.588Z,2.42
2022-12-15T05:59:51.858Z,2.92
2022-12-15T06:02:20.240Z,2.30
2022-12-15T06:04:50.001Z,2.63
2022-12-15T06:07:18.486Z,2.60
2022-12-15T06:09:47.067Z,2.80
2022-12-15T06:12:15.883Z,3.05
2022-12-15T06:14:44.366Z,9.25
2022-12-15T06:17:13.409Z,5.13
2022-12-15T06:19:41.686Z,4.47
2022-12-15T06:22:11.704Z,5.55
2022-12-15T06:24:40.203Z,3.90
2022-12-15T06:27:09.083Z,3.00
2022-12-15T06:29:37.338Z,3.28
2022-12-15T06:32:06.141Z,3.20
2022-12-15T06:34:34.437Z,2.72
2022-12-15T06:37:02.874Z,2.97
2022-12-15T06:39:32.588Z,2.60
2022-12-15T06:42:00.856Z,2.72
2022-12-15T06:44:29.251Z,3.10
2022-12-15T06:46:57.591Z,3.05
2022-12-15T06:49:26.055Z,3.30
2022-12-15T06:51:54.373Z,3.13
2022-12-15T06:54:22.822Z,3.42
2022-12-15T06:56:53.071Z,3.30
2022-12-15T06:59:21.351Z,2.80
2022-12-15T07:01:49.909Z,3.25
2022-12-15T07:04:18.647Z,3.95
2022-12-15T07:06:47.037Z,4.95
2022-12-15T07:09:18.168Z,3.83
2022-12-15T07:11:49.415Z,4.20
2022-12-15T07:14:19.206Z,3.40
2022-12-15T07:16:47.471Z,3.22
2022-12-15T07:19:15.962Z,3.28
2022-12-15T07:21:44.291Z,3.25
2022-12-15T07:24:13.872Z,3.22
2022-12-15T07:26:42.689Z,3.03
2022-12-15T07:29:12.326Z,2.75
2022-12-15T07:31:42.147Z,2.83
2022-12-15T07:34:10.513Z,3.15
2022-12-15T07:36:39.016Z,3.88
2022-12-15T07:39:10.538Z,5.38
2022-12-15T07:41:40.362Z,6.03
2022-12-15T07:44:08.981Z,6.50
2022-12-15T07:46:37.591Z,5.55
2022-12-15T07:49:08.018Z,6.10
2022-12-15T07:51:36.652Z,5.63
2022-12-15T07:54:05.408Z,5.82
2022-12-15T07:56:39.063Z,6.30
2022-12-15T07:59:08.842Z,5.88
2022-12-15T08:01:37.317Z,5.95
2022-12-15T08:04:07.284Z,5.03
2022-12-15T08:06:35.647Z,6.00
2022-12-15T08:09:04.018Z,5.47
2022-12-15T08:11:35.578Z,6.20
2022-12-15T08:14:07.020Z,6.00
2022-12-15T08:16:37.519Z,6.15
2022-12-15T08:19:08.459Z,5.20
2022-12-15T08:21:36.772Z,5.57
2022-12-15T08:24:05.561Z,5.05
2022-12-15T08:26:34.170Z,4.90
2022-12-15T08:29:48.735Z,5.00
2022-12-15T08:31:54.110Z,5.15
2022-12-15T08:34:23.868Z,6.18
2022-12-15T08:36:52.136Z,4.88
2022-12-15T08:39:20.557Z,5.40
2022-12-15T08:41:48.920Z,4.97
2022-12-15T08:44:17.419Z,4.32
2022-12-15T08:46:48.674Z,4.70
2022-12-15T08:49:21.679Z,3.85
2022-12-15T08:51:52.530Z,4.38
2022-12-15T08:54:21.777Z,4.25
2022-12-15T08:56:51.094Z,4.90
2022-12-15T08:59:20.209Z,6.60
2022-12-15T09:01:48.753Z,4.93
2022-12-15T09:04:17.572Z,5.07
2022-12-15T09:06:50.392Z,6.90
2022-12-15T09:09:21.131Z,11.27
2022-12-15T09:11:49.930Z,6.47
2022-12-15T09:14:24.146Z,8.18
2022-12-15T09:16:57.211Z,3.90
2022-12-15T09:19:25.576Z,2.95
2022-12-15T09:21:53.895Z,16.20
2022-12-15T09:24:32.465Z,30.60
2022-12-15T09:27:04.198Z,14.50
2022-12-15T09:29:32.605Z,23.58
2022-12-15T09:32:01.050Z,9.48
2022-12-15T09:34:29.526Z,12.90
2022-12-15T09:36:58.030Z,10.65
2022-12-15T09:39:27.777Z,5.47
2022-12-15T09:41:59.668Z,3.05
2022-12-15T09:44:30.693Z,3.13
2022-12-15T09:47:17.778Z,4.20
2022-12-15T09:49:54.412Z,5.97
2022-12-15T09:52:27.527Z,13.07
2022-12-15T09:54:57.527Z,13.35
2022-12-15T09:57:35.716Z,5.35
2022-12-15T10:00:17.596Z,9.40
2022-12-15T10:03:17.917Z,10.63
2022-12-15T10:08:47.046Z,4.85
2022-12-15T10:11:26.246Z,6.63
2022-12-15T10:14:00.816Z,7.90
2022-12-15T10:16:36.174Z,7.45
2022-12-15T10:19:09.935Z,4.65
2022-12-15T10:21:38.378Z,6.43
2022-12-15T10:27:29.596Z,5.07
2022-12-15T10:30:02.649Z,4.82
2022-12-15T10:32:43.488Z,5.32
2022-12-15T10:35:17.269Z,4.13
2022-12-15T10:37:45.831Z,3.67
2022-12-15T10:40:21.007Z,4.43
2022-12-15T10:42:51.672Z,6.20
2022-12-15T10:45:39.890Z,4.40
2022-12-15T10:48:18.995Z,4.40
2022-12-15T10:50:50.203Z,3.55
2022-12-15T10:53:38.788Z,4.43
2022-12-15T10:56:09.141Z,4.90
2022-12-15T10:58:50.902Z,6.05
2022-12-15T11:01:24.125Z,5.60
2022-12-15T11:03:54.349Z,4.68
2022-12-15T11:06:25.408Z,4.88
2022-12-15T11:08:56.971Z,5.35
2022-12-15T11:11:50.357Z,5.18
2022-12-15T11:14:24.614Z,5.47
2022-12-15T11:16:55.111Z,5.55
2022-12-15T11:19:32.600Z,5.80
2022-12-15T11:22:06.053Z,4.65
2022-12-15T11:24:40.148Z,6.05
2022-12-15T11:30:00.257Z,4.95
2022-12-15T11:32:30.677Z,1.35
2022-12-15T11:34:59.260Z,3.00
2022-12-15T11:37:42.348Z,3.13
2022-12-15T11:40:37.518Z,2.97
2022-12-15T11:43:41.263Z,3.60
2022-12-15T11:46:21.258Z,3.30
2022-12-15T11:49:09.212Z,3.72
2022-12-15T11:51:43.639Z,3.88
2022-12-15T11:54:19.230Z,2.60
2022-12-15T11:56:52.167Z,3.13
2022-12-15T11:59:49.983Z,2.20
2022-12-15T12:02:52.759Z,2.42
2022-12-15T12:05:51.855Z,2.92
2022-12-15T12:08:41.143Z,2.05
2022-12-15T12:11:14.987Z,1.70
2022-12-15T12:13:53.777Z,0.50
2022-12-15T12:16:37.150Z,0.50
2022-12-15T12:19:11.652Z,1.70
2022-12-15T12:21:45.104Z,1.00
2022-12-15T12:24:20.541Z,0.70
2022-12-15T12:26:57.584Z,1.33
2022-12-15T12:29:32.596Z,1.70
2022-12-15T12:32:12.196Z,0.52
2022-12-15T12:35:31.458Z,1.30
2022-12-15T12:37:47.719Z,0.93
2022-12-15T12:40:21.123Z,0.95
2022-12-15T12:42:55.530Z,1.30
2022-12-15T12:45:28.916Z,1.63
2022-12-15T12:48:01.771Z,1.70
2022-12-15T12:50:32.955Z,1.98
2022-12-15T12:53:04.397Z,2.03
2022-12-15T12:55:40.024Z,2.20
2022-12-15T12:58:33.363Z,2.22
2022-12-15T13:01:08.026Z,3.10
2022-12-15T13:03:40.443Z,1.90
2022-12-15T13:06:43.250Z,2.80
2022-12-15T13:09:23.623Z,3.22
2022-12-15T13:14:51.971Z,3.13
2022-12-15T13:17:31.921Z,2.30
2022-12-15T13:20:25.949Z,2.00
2022-12-15T13:22:57.959Z,2.78
2022-12-15T13:26:01.823Z,3.00
2022-12-15T13:28:44.239Z,2.08
2022-12-15T13:31:30.503Z,1.90
2022-12-15T13:34:23.098Z,2.42
2022-12-15T13:37:02.172Z,2.22
2022-12-15T13:39:57.741Z,2.90
2022-12-15T13:42:40.748Z,1.88
2022-12-15T13:45:51.952Z,2.40
2022-12-15T13:48:28.929Z,2.67
2022-12-15T13:51:04.044Z,3.33
2022-12-15T13:53:41.492Z,3.42
2022-12-15T13:56:40.212Z,4.43
2022-12-15T13:59:17.453Z,3.33
2022-12-15T14:01:51.661Z,2.10
2022-12-15T14:04:21.958Z,2.08
2022-12-15T14:06:53.621Z,2.65
2022-12-15T14:09:28.014Z,2.50
2022-12-15T14:11:59.150Z,2.20
2022-12-15T14:14:31.237Z,2.65
2022-12-15T14:17:02.636Z,2.75
2022-12-15T14:19:42.162Z,2.60
2022-12-15T14:22:28.465Z,3.20
2022-12-15T14:25:21.385Z,3.17
2022-12-15T14:27:51.797Z,2.10
2022-12-15T14:30:23.514Z,3.17
2022-12-15T14:32:55.589Z,2.95
2022-12-15T14:35:30.286Z,2.67
2022-12-15T14:38:02.027Z,3.95
2022-12-15T14:40:31.003Z,3.90
2022-12-15T14:43:01.010Z,3.40
2022-12-15T14:45:32.056Z,4.07
2022-12-15T14:50:51.821Z,4.18
2022-12-15T14:53:22.554Z,3.70
2022-12-15T14:55:51.504Z,3.80
2022-12-15T14:58:33.907Z,4.13
2022-12-15T15:01:04.249Z,4.00
2022-12-15T15:03:03.892Z,5.72
2022-12-15T15:03:15.625Z,3.67
2022-12-15T15:03:16.532Z,4.80
2022-12-15T15:03:39.004Z,1.65
2022-12-15T15:06:18.399Z,3.05
2022-12-15T15:08:48.914Z,2.83
2022-12-15T15:11:29.391Z,2.17
2022-12-15T15:14:06.484Z,3.00
2022-12-15T15:16:35.009Z,2.35
2022-12-15T15:19:05.534Z,2.33
2022-12-15T15:21:37.773Z,2.10
2022-12-15T15:24:24.905Z,2.08
2022-12-15T15:26:53.872Z,2.10
2022-12-15T15:29:40.802Z,1.17
2022-12-15T15:32:16.633Z,2.05
2022-12-15T15:34:45.319Z,1.80
2022-12-15T15:37:19.904Z,1.70
2022-12-15T15:39:49.992Z,1.50
2022-12-15T15:42:18.586Z,1.25
2022-12-15T15:44:48.344Z,1.52
2022-12-15T15:47:25.177Z,2.03
2022-12-15T15:49:54.820Z,1.90
2022-12-15T15:52:24.061Z,1.40
2022-12-15T15:54:54.131Z,2.20
2022-12-15T15:57:22.530Z,4.32
2022-12-15T15:59:52.174Z,1.92
2022-12-15T16:02:20.654Z,1.83
2022-12-15T16:04:49.093Z,2.67
2022-12-15T16:07:23.941Z,2.88
2022-12-15T16:09:52.666Z,2.50
2022-12-15T16:12:28.229Z,7.50
2022-12-15T16:14:58.094Z,2.70
2022-12-15T16:17:26.578Z,2.17
2022-12-15T16:19:55.145Z,2.10
2022-12-15T16:22:23.879Z,2.55
2022-12-15T16:24:52.179Z,2.75
2022-12-15T16:27:20.513Z,2.65
2022-12-15T16:29:48.842Z,1.67
2022-12-15T16:32:18.575Z,2.20
2022-12-15T16:34:46.959Z,1.67
2022-12-15T16:37:26.219Z,1.95
2022-12-15T16:39:54.724Z,1.38
2022-12-15T16:42:23.065Z,1.40
2022-12-15T16:44:51.350Z,1.38
2022-12-15T16:47:20.954Z,1.30
2022-12-15T16:49:49.184Z,1.60
2022-12-15T16:52:21.178Z,1.20
2022-12-15T16:54:51.024Z,1.33
2022-12-15T16:57:19.779Z,1.30
2022-12-15T16:59:49.780Z,1.63
2022-12-15T17:02:27.633Z,2.50
2022-12-15T17:04:56.229Z,1.85
2022-12-15T17:07:27.605Z,1.70
2022-12-15T17:09:56.238Z,1.73
2022-12-15T17:12:24.632Z,1.52
2022-12-15T17:14:52.949Z,1.75
2022-12-15T17:17:21.491Z,1.77
2022-12-15T17:20:27.384Z,1.90
2022-12-15T17:22:40.519Z,1.90
2022-12-15T17:25:27.194Z,1.73
2022-12-15T17:28:08.594Z,1.88
2022-12-15T17:30:36.896Z,2.17
2022-12-15T17:33:18.188Z,2.42
2022-12-15T17:35:48.146Z,3.50
2022-12-15T17:38:18.379Z,4.45
2022-12-15T17:40:47.837Z,2.95
2022-12-15T17:43:18.901Z,1.50
2022-12-15T17:45:47.523Z,2.28
2022-12-15T17:48:15.818Z,2.40
2022-12-15T17:50:49.757Z,2.92
2022-12-15T17:53:21.078Z,2.28
2022-12-15T17:55:50.168Z,1.90
2022-12-15T17:58:20.608Z,1.52
2022-12-15T18:00:51.842Z,2.08
2022-12-15T18:03:21.587Z,2.25
2022-12-15T18:05:52.600Z,2.47
2022-12-15T18:08:24.921Z,2.92
2022-12-15T18:10:55.435Z,3.83
2022-12-15T18:13:27.937Z,3.95
2022-12-15T18:15:59.167Z,3.67
2022-12-15T18:18:27.812Z,6.78
2022-12-15T18:21:00.340Z,8.85
2022-12-15T18:23:31.682Z,7.30
2022-12-15T18:26:03.169Z,6.60
2022-12-15T18:28:33.831Z,2.63
2022-12-15T18:31:08.114Z,4.53
2022-12-15T18:33:36.629Z,4.25
2022-12-15T18:36:05.662Z,5.32
2022-12-15T18:38:35.437Z,11.45
2022-12-15T18:41:04.350Z,7.72
2022-12-15T18:43:34.706Z,4.65
2022-12-15T18:46:03.262Z,3.08
2022-12-15T18:48:33.047Z,3.92
2022-12-15T18:51:03.671Z,3.30
2022-12-15T18:53:34.208Z,2.97
2022-12-15T18:56:06.553Z,3.40
2022-12-15T18:58:36.875Z,2.85
2022-12-15T19:01:06.884Z,3.40
2022-12-15T19:03:36.420Z,2.72
2022-12-15T19:06:10.826Z,1.83
2022-12-15T19:08:40.967Z,1.90
2022-12-15T19:11:18.110Z,2.22
2022-12-15T19:13:47.087Z,2.10
2022-12-15T19:16:18.566Z,2.08
2022-12-15T19:19:04.577Z,2.58
2022-12-15T19:21:51.579Z,2.17
2022-12-15T19:24:45.499Z,3.22
2022-12-15T19:27:18.493Z,3.30
2022-12-15T19:29:46.866Z,3.42
2022-12-15T19:32:15.264Z,3.10
2022-12-15T19:34:43.588Z,3.90
2022-12-15T19:37:17.011Z,4.50
2022-12-15T19:39:45.698Z,5.63
2022-12-15T19:42:19.981Z,5.82
2022-12-15T19:44:48.633Z,5.22
2022-12-15T19:47:20.031Z,4.65
2022-12-15T19:49:50.193Z,3.78
2022-12-15T19:52:21.642Z,4.63
2022-12-15T19:54:50.902Z,5.25
2022-12-15T19:57:21.259Z,5.25
2022-12-15T19:59:50.036Z,5.38
2022-12-15T20:02:20.342Z,4.63
2022-12-15T20:04:49.604Z,4.57
2022-12-15T20:07:20.716Z,3.63
2022-12-15T20:09:49.948Z,4.03
2022-12-15T20:12:22.189Z,4.35
2022-12-15T20:14:50.977Z,4.07
2022-12-15T20:17:19.270Z,5.50
2022-12-15T20:19:47.597Z,6.93
2022-12-15T20:22:17.698Z,5.60
2022-12-15T20:24:46.922Z,4.68
2022-12-15T20:29:45.616Z,4.93
2022-12-15T20:32:16.497Z,3.67
2022-12-15T20:34:45.246Z,3.83
2022-12-15T20:37:19.414Z,4.40
2022-12-15T20:39:51.405Z,4.45
2022-12-15T20:42:23.598Z,9.20
2022-12-15T20:44:54.233Z,8.75
2022-12-15T20:47:25.524Z,11.25
2022-12-15T20:49:55.771Z,8.25
2022-12-15T20:52:26.410Z,8.27
2022-12-15T20:54:55.742Z,7.40
2022-12-15T20:59:53.542Z,19.05
2022-12-15T21:02:24.150Z,8.07
2022-12-15T21:04:52.942Z,7.57
2022-12-15T21:07:21.400Z,7.07
2022-12-15T21:09:49.727Z,6.15
2022-12-15T21:12:19.501Z,5.72
2022-12-15T21:14:48.209Z,5.55
2022-12-15T21:17:19.925Z,5.00
2022-12-15T21:19:49.119Z,6.18
2022-12-15T21:22:20.428Z,5.88
2022-12-15T21:24:51.333Z,8.13
2022-12-15T21:27:20.138Z,4.70
2022-12-15T21:29:52.613Z,3.45
2022-12-15T21:32:22.801Z,2.95
2022-12-15T21:34:51.763Z,2.50
2022-12-15T21:37:25.859Z,3.30
2022-12-15T21:39:54.850Z,3.65
2022-12-15T21:42:23.991Z,4.75
2022-12-15T21:44:52.359Z,4.75
2022-12-15T21:47:50.050Z,7.20
2022-12-15T21:50:20.169Z,6.75
2022-12-15T21:52:49.061Z,2.58
2022-12-15T21:55:18.560Z,4.60
2022-12-15T21:57:46.946Z,5.15
2022-12-15T22:00:17.865Z,4.72
2022-12-15T22:02:48.612Z,3.00
2022-12-15T22:05:19.495Z,3.78
2022-12-15T22:07:48.131Z,2.80
2022-12-15T22:10:17.214Z,3.33
2022-12-15T22:12:57.504Z,3.13
2022-12-15T22:15:29.420Z,3.20
2022-12-15T22:17:59.217Z,3.72
2022-12-15T22:20:27.475Z,3.97
2022-12-15T22:22:55.726Z,4.03
2022-12-15T22:25:26.172Z,3.50
2022-12-15T22:27:54.827Z,5.60
2022-12-15T22:30:26.927Z,5.03
2022-12-15T22:32:55.680Z,5.15
2022-12-15T22:35:27.171Z,5.43
2022-12-15T22:37:56.316Z,5.43
2022-12-15T22:40:25.957Z,5.25
2022-12-15T22:45:25.045Z,4.75
2022-12-15T22:47:55.004Z,4.82
2022-12-15T22:50:27.283Z,7.22
2022-12-15T22:52:56.042Z,5.05
2022-12-15T22:55:25.360Z,6.90
2022-12-15T22:57:58.047Z,4.78
2022-12-15T23:00:26.477Z,5.25
2022-12-15T23:02:55.038Z,4.35
2022-12-15T23:05:23.543Z,5.13
2022-12-15T23:07:54.123Z,4.40
2022-12-15T23:10:40.972Z,4.03
2022-12-15T23:13:09.393Z,3.55
2022-12-15T23:15:55.157Z,3.40
2022-12-15T23:18:23.545Z,4.03
2022-12-15T23:20:52.638Z,3.72
2022-12-15T23:23:22.415Z,3.95
2022-12-15T23:25:50.765Z,4.20
2022-12-15T23:28:19.087Z,4.78
2022-12-15T23:30:49.945Z,5.28
2022-12-15T23:33:18.434Z,4.90
2022-12-15T23:35:46.783Z,5.05
2022-12-15T23:38:15.832Z,4.55
2022-12-15T23:40:52.732Z,4.50
2022-12-15T23:43:22.138Z,3.75
2022-12-15T23:45:57.293Z,5.57
2022-12-15T23:48:26.210Z,3.97
2022-12-15T23:50:54.440Z,4.55
2022-12-15T23:53:22.769Z,4.63
2022-12-15T23:55:52.399Z,6.32
2022-12-15T23:58:21.894Z,5.45
